Time;durP1;ratioP1;P1;durP2;ratioP2;P2;SDS_P1;SDS_P2;PMS_P1;PMS_P2;Temp;Humidity;BMP_temperature;BMP_pressure;BME280_temperature;BME280_humidity;BME280_pressure;Samples;Min_cycle;Max_cycle;Signal;HPM_P1;HPM_P2
2023/02/08 00:00:14;;;;;;;30.33;14.70;;;;;;;-143.48;81.61;118439.88;5097063;28;20016;-37
2023/02/08 00:02:40;;;;;;;30.30;15.93;;;;;;;-143.48;82.39;118439.88;5096969;28;20459;-35
2023/02/08 00:05:05;;;;;;;33.47;16.40;;;;;;;-143.48;82.17;118439.88;5096775;28;20438;-33
2023/02/08 00:07:31;;;;;;;30.45;16.50;;;;;;;-143.48;82.34;118439.88;5097344;28;20089;-35
2023/02/08 00:09:56;;;;;;;34.55;16.90;;;;;;;-143.48;81.50;118439.88;5078467;28;20416;-34
2023/02/08 00:12:22;;;;;;;30.40;15.88;;;;;;;-143.48;82.27;118439.88;5096592;28;20028;-37
2023/02/08 00:14:47;;;;;;;29.17;16.30;;;;;;;-143.48;81.99;118439.88;5096802;28;20065;-35
2023/02/08 00:17:12;;;;;;;31.02;15.80;;;;;;;-143.48;81.70;118439.88;5096533;28;20028;-34
2023/02/08 00:19:38;;;;;;;29.33;15.98;;;;;;;-143.48;82.15;118439.88;5096755;28;20431;-33
2023/02/08 00:22:03;;;;;;;32.25;15.95;;;;;;;-143.48;81.80;118439.88;5096275;28;20106;-34
2023/02/08 00:24:28;;;;;;;29.15;15.95;;;;;;;-143.48;81.03;118439.88;5096348;28;20032;-35
2023/02/08 00:26:54;;;;;;;36.47;15.50;;;;;;;-143.48;81.29;118439.88;5096564;28;20019;-34
2023/02/08 00:29:19;;;;;;;35.05;15.48;;;;;;;-143.48;81.16;118439.88;5096243;28;20065;-36
2023/02/08 00:31:44;;;;;;;33.55;16.58;;;;;;;-143.48;80.62;118439.88;5096144;28;20107;-34
2023/02/08 00:34:10;;;;;;;30.55;15.63;;;;;;;-143.48;80.58;118439.88;5096455;28;20051;-38
2023/02/08 00:36:35;;;;;;;34.05;16.40;;;;;;;-143.48;81.27;118439.88;5096207;28;20103;-35
2023/02/08 00:39:01;;;;;;;30.23;15.50;;;;;;;-143.48;82.17;118439.88;5096113;28;20023;-35
2023/02/08 00:41:26;;;;;;;30.65;15.60;;;;;;;-143.48;82.14;118439.88;5096187;28;20028;-35
2023/02/08 00:43:52;;;;;;;32.53;15.77;;;;;;;-143.48;81.64;118439.88;5096150;28;20024;-36
2023/02/08 00:46:19;;;;;;;30.30;16.10;;;;;;;-143.48;81.89;118439.88;5095910;28;20020;-34
2023/02/08 00:48:44;;;;;;;29.67;15.45;;;;;;;-143.48;82.08;118439.88;5096041;28;20052;-35
2023/02/08 00:51:12;;;;;;;30.35;15.70;;;;;;;-143.48;82.54;118439.88;5096370;28;20107;-35
2023/02/08 00:53:40;;;;;;;32.92;15.32;;;;;;;-143.48;82.48;118439.88;5096049;28;20375;-35
2023/02/08 00:56:07;;;;;;;30.20;15.57;;;;;;;-143.48;82.32;118439.88;5095839;28;20020;-34
2023/02/08 00:58:33;;;;;;;30.05;15.30;;;;;;;-143.48;82.52;118439.88;5095744;28;20428;-35
2023/02/08 01:01:00;;;;;;;26.92;15.13;;;;;;;-143.48;82.57;118439.88;5094971;28;20016;-35
2023/02/08 01:03:26;;;;;;;30.00;15.40;;;;;;;-143.48;82.39;118439.88;5095479;28;20119;-36
2023/02/08 01:05:52;;;;;;;29.13;14.98;;;;;;;-143.48;82.04;118439.88;5095965;28;20032;-35
2023/02/08 01:08:19;;;;;;;28.75;14.93;;;;;;;-143.48;82.37;118439.88;5095468;28;20016;-38
2023/02/08 01:10:46;;;;;;;33.10;15.57;;;;;;;-143.48;82.40;118439.88;5095717;28;20024;-34
2023/02/08 01:13:11;;;;;;;28.63;14.48;;;;;;;-143.48;82.49;118439.88;5095726;28;20463;-37
2023/02/08 01:15:36;;;;;;;28.27;15.13;;;;;;;-143.48;82.30;118439.88;5095328;28;20020;-35
2023/02/08 01:18:03;;;;;;;26.65;14.30;;;;;;;-143.48;82.71;118439.88;5095321;28;20024;-35
2023/02/08 01:20:29;;;;;;;28.45;14.55;;;;;;;-143.48;82.28;118439.88;5095566;28;20097;-34
2023/02/08 01:22:55;;;;;;;30.05;14.13;;;;;;;-143.48;82.50;118439.88;5095173;28;20056;-36
2023/02/08 01:25:20;;;;;;;26.45;13.77;;;;;;;-143.48;82.69;118439.88;5095209;28;20027;-35
2023/02/08 01:27:46;;;;;;;31.15;14.68;;;;;;;-143.48;82.38;118439.88;5095322;28;20028;-35
2023/02/08 02:31:06;;;;;;;26.05;13.90;;;;;;;-143.48;82.49;118439.88;4211427;28;20048;-36
2023/02/08 02:33:39;;;;;;;29.90;14.25;;;;;;;-143.48;83.33;118439.88;5094112;28;20513;-35
2023/02/08 02:36:04;;;;;;;;;;;;;;;-143.48;82.76;118439.88;5094586;28;20466;-37
2023/02/08 02:38:56;;;;;;;27.52;13.25;;;;;;;-143.48;82.80;118439.88;5094443;28;20002;-38
2023/02/08 02:45:05;;;;;;;27.67;13.82;;;;;;;-143.48;82.55;118439.88;5094572;28;20039;-35
2023/02/08 02:48:02;;;;;;;27.55;13.93;;;;;;;-143.48;82.24;118439.88;5069256;28;20134;-36
2023/02/08 02:50:41;;;;;;;25.60;13.48;;;;;;;-143.48;82.46;118439.88;5087787;28;20114;-35
2023/02/08 02:53:54;;;;;;;25.10;14.07;;;;;;;-143.48;82.25;118439.88;5093741;28;20062;-38
2023/02/08 02:56:25;;;;;;;26.65;13.52;;;;;;;-143.48;81.89;118439.88;5057975;28;20043;-38
2023/02/08 02:58:54;;;;;;;26.08;13.57;;;;;;;-143.48;81.04;118439.88;5093603;28;20027;-36
2023/02/08 03:01:24;;;;;;;24.20;13.57;;;;;;;-143.48;80.79;118439.88;5093602;28;20028;-35
2023/02/08 03:03:51;;;;;;;25.35;14.20;;;;;;;-143.48;81.02;118439.88;5093426;28;20028;-35
2023/02/08 03:06:31;;;;;;;27.35;13.80;;;;;;;-143.48;81.28;118439.88;5075399;28;20020;-35
2023/02/08 03:09:46;;;;;;;24.10;13.60;;;;;;;-143.48;81.63;118439.88;5093562;28;20024;-36
2023/02/08 03:12:38;;;;;;;24.45;13.25;;;;;;;-143.48;82.18;118439.88;5086786;28;20039;-35
2023/02/08 03:15:41;;;;;;;24.20;13.93;;;;;;;-143.48;82.36;118439.88;5093435;28;20493;-36
2023/02/08 03:18:23;;;;;;;25.52;14.18;;;;;;;-143.48;82.09;118439.88;5093422;28;20039;-37
2023/02/08 03:21:02;;;;;;;24.27;13.52;;;;;;;-143.48;81.83;118439.88;5093719;28;20024;-36
2023/02/08 03:23:30;;;;;;;23.98;13.13;;;;;;;-143.48;82.02;118439.88;5096089;28;20443;-36
2023/02/08 03:26:03;;;;;;;27.48;14.20;;;;;;;-143.48;81.81;118439.88;5097509;28;20107;-37
2023/02/08 03:28:39;;;;;;;25.65;13.48;;;;;;;-143.48;81.24;118439.88;5097663;28;20024;-36
2023/02/08 03:31:17;;;;;;;31.33;14.13;;;;;;;-143.48;81.50;118439.88;5097358;28;20429;-37
2023/02/08 03:33:46;;;;;;;29.08;13.70;;;;;;;-143.48;81.84;118439.88;5097378;28;20020;-35
2023/02/08 03:36:43;;;;;;;25.40;13.73;;;;;;;-143.48;81.35;118439.88;5097606;28;20103;-38
2023/02/08 03:39:13;;;;;;;24.60;12.98;;;;;;;-143.48;80.67;118439.88;5097489;28;20031;-35
2023/02/08 03:41:43;;;;;;;25.13;13.45;;;;;;;-143.48;80.21;118439.88;5097356;28;20020;-37
2023/02/08 03:44:13;;;;;;;24.42;13.20;;;;;;;-143.48;80.29;118439.88;5097193;28;20032;-38
2023/02/08 03:46:49;;;;;;;23.45;13.05;;;;;;;-143.48;81.31;118439.88;5097147;28;20027;-34
2023/02/08 03:49:22;;;;;;;27.02;13.27;;;;;;;-143.48;81.21;118439.88;5097087;28;20028;-36
2023/02/08 03:51:48;;;;;;;;;;;;;;;-143.48;81.00;118439.88;5080029;28;20031;-38
2023/02/08 03:54:19;;;;;;;24.50;13.63;;;;;;;-143.48;80.96;118439.88;5097278;28;19911;-35
2023/02/08 03:56:56;;;;;;;26.70;13.80;;;;;;;-143.48;81.06;118439.88;5097190;28;20028;-35
2023/02/08 03:59:26;;;;;;;27.20;14.20;;;;;;;-143.48;80.95;118439.88;5097145;28;20035;-38
2023/02/08 04:02:00;;;;;;;27.15;13.93;;;;;;;-143.48;81.53;118439.88;5096723;28;20035;-35
2023/02/08 04:04:30;;;;;;;29.70;14.40;;;;;;;-143.48;81.75;118439.88;5097302;28;20024;-35
2023/02/08 04:06:56;;;;;;;27.25;14.27;;;;;;;-143.48;81.89;118439.88;5096747;28;20062;-35
2023/02/08 04:09:21;;;;;;;26.60;13.75;;;;;;;-143.48;81.97;118439.88;5097219;28;20044;-33
2023/02/08 04:11:46;;;;;;;29.98;14.60;;;;;;;-143.48;81.70;118439.88;5096627;28;20024;-33
2023/02/08 04:14:12;;;;;;;26.90;14.30;;;;;;;-143.48;82.05;118439.88;5096558;28;20032;-33
2023/02/08 04:16:37;;;;;;;31.27;14.20;;;;;;;-143.48;80.55;118439.88;5097089;28;20443;-34
2023/02/08 04:19:02;;;;;;;23.45;13.30;;;;;;;-143.48;80.27;118439.88;5096549;28;20085;-38
2023/02/08 04:21:28;;;;;;;25.88;14.02;;;;;;;-143.48;81.16;118439.88;5096454;28;20474;-35
2023/02/08 04:23:53;;;;;;;28.25;13.55;;;;;;;-143.48;80.97;118439.88;5096577;28;20020;-33
2023/02/08 04:26:18;;;;;;;24.95;13.93;;;;;;;-143.48;81.34;118439.88;5096476;28;20028;-34
2023/02/08 04:28:44;;;;;;;25.65;13.40;;;;;;;-143.48;81.39;118439.88;5096616;28;20073;-35
2023/02/08 04:31:09;;;;;;;25.17;13.32;;;;;;;-143.48;81.51;118439.88;5096167;28;20131;-33
2023/02/08 04:33:34;;;;;;;30.05;13.98;;;;;;;-143.48;81.63;118439.88;5096194;28;20046;-33
2023/02/08 04:36:00;;;;;;;28.83;14.05;;;;;;;-143.48;81.80;118439.88;5096052;28;20458;-33
2023/02/08 04:38:25;;;;;;;28.50;14.05;;;;;;;-143.48;81.69;118439.88;5096405;28;20027;-32
2023/02/08 04:40:50;;;;;;;24.88;13.70;;;;;;;-143.48;81.08;118439.88;5096268;28;20105;-32
2023/02/08 04:43:16;;;;;;;28.38;13.68;;;;;;;-143.48;81.26;118439.88;5096261;28;20024;-33
2023/02/08 04:45:41;;;;;;;28.55;13.45;;;;;;;-143.48;81.46;118439.88;5095866;28;20028;-32
2023/02/08 04:48:06;;;;;;;29.85;13.70;;;;;;;-143.48;81.21;118439.88;5096148;28;20056;-32
2023/02/08 04:50:33;;;;;;;30.05;13.85;;;;;;;-143.48;81.33;118439.88;5096173;28;20024;-33
2023/02/08 04:52:58;;;;;;;24.73;13.38;;;;;;;-143.48;81.37;118439.88;5096136;28;20459;-32
2023/02/08 04:55:24;;;;;;;29.60;14.50;;;;;;;-143.48;80.95;118439.88;5095707;28;20055;-32
2023/02/08 04:57:49;;;;;;;24.45;13.50;;;;;;;-143.48;81.61;118439.88;5095714;28;20164;-33
2023/02/08 05:00:15;;;;;;;24.90;13.85;;;;;;;-143.48;81.49;118439.88;5096017;28;20489;-32
2023/02/08 05:02:40;;;;;;;22.83;12.80;;;;;;;-143.48;82.16;118439.88;5096088;28;20028;-33
2023/02/08 05:05:05;;;;;;;25.58;13.10;;;;;;;-143.48;81.68;118439.88;5095627;28;20073;-33
2023/02/08 05:07:31;;;;;;;28.25;14.02;;;;;;;-143.48;81.68;118439.88;5095710;28;20119;-33
2023/02/08 05:09:57;;;;;;;23.83;13.23;;;;;;;-143.48;81.63;118439.88;5095784;28;20524;-33
2023/02/08 05:12:22;;;;;;;26.33;12.77;;;;;;;-143.48;81.23;118439.88;5077276;28;20012;-32
2023/02/08 05:14:47;;;;;;;26.83;13.80;;;;;;;-143.48;81.63;118439.88;5095968;28;20083;-33
2023/02/08 05:17:13;;;;;;;23.85;13.40;;;;;;;-143.48;81.10;118439.88;5094736;28;20383;-33
2023/02/08 05:19:38;;;;;;;24.00;13.10;;;;;;;-143.48;81.15;118439.88;5095567;28;20024;-32
2023/02/08 05:22:03;;;;;;;23.48;12.90;;;;;;;-143.48;80.68;118439.88;5094379;28;20180;-33
2023/02/08 05:24:29;;;;;;;25.55;13.30;;;;;;;-143.48;80.13;118439.88;5095229;28;20028;-33
2023/02/08 05:26:54;;;;;;;21.77;12.75;;;;;;;-143.48;78.87;118439.88;5093035;28;20112;-33
2023/02/08 05:29:19;;;;;;;24.83;12.93;;;;;;;-143.48;78.09;118439.88;5074674;28;20031;-33
2023/02/08 05:31:45;;;;;;;24.40;12.73;;;;;;;-143.48;78.75;118439.88;5092810;28;20040;-32
2023/02/08 05:34:11;;;;;;;24.33;12.27;;;;;;;-143.48;78.51;118439.88;5093104;28;20065;-32
2023/02/08 05:36:36;;;;;;;23.80;12.30;;;;;;;-143.48;78.73;118439.88;5093105;28;20020;-33
2023/02/08 05:39:02;;;;;;;22.65;12.80;;;;;;;-143.48;78.94;118439.88;5092818;28;20032;-33
2023/02/08 05:41:27;;;;;;;24.80;12.95;;;;;;;-143.48;78.56;118439.88;5094225;28;20028;-33
2023/02/08 05:43:53;;;;;;;28.27;12.85;;;;;;;-143.48;78.23;118439.88;5094819;28;20028;-33
2023/02/08 05:46:18;;;;;;;25.13;12.52;;;;;;;-143.48;78.90;118439.88;5094696;28;20077;-33
2023/02/08 05:48:43;;;;;;;21.80;11.88;;;;;;;-143.48;78.48;118439.88;5095206;28;20485;-33
2023/02/08 05:51:09;;;;;;;22.55;12.82;;;;;;;-143.48;78.62;118439.88;5095219;28;20081;-34
2023/02/08 05:53:35;;;;;;;24.83;13.32;;;;;;;-143.48;78.70;118439.88;5094924;28;20024;-33
2023/02/08 05:56:00;;;;;;;25.17;12.75;;;;;;;-143.48;79.31;118439.88;5095548;28;20351;-33
2023/02/08 05:58:27;;;;;;;23.48;12.52;;;;;;;-143.48;78.94;118439.88;5094583;28;20024;-33
2023/02/08 06:00:52;;;;;;;26.67;12.65;;;;;;;-143.48;79.37;118439.88;5094836;28;20028;-33
2023/02/08 06:03:17;;;;;;;22.35;12.80;;;;;;;-143.48;79.03;118439.88;5094618;28;20031;-33
2023/02/08 06:05:43;;;;;;;21.92;12.50;;;;;;;-143.48;78.77;118439.88;5094411;28;20534;-33
2023/02/08 06:08:09;;;;;;;24.60;12.52;;;;;;;-143.48;78.67;118439.88;5094414;28;20455;-33
2023/02/08 06:10:34;;;;;;;23.98;12.18;;;;;;;-143.48;78.71;118439.88;5094353;28;20024;-33
2023/02/08 06:13:00;;;;;;;23.60;12.48;;;;;;;-143.48;79.19;118439.88;5094802;28;20109;-33
2023/02/08 06:15:26;;;;;;;26.00;12.43;;;;;;;-143.48;78.75;118439.88;5094499;28;20020;-33
2023/02/08 06:17:51;;;;;;;23.48;12.95;;;;;;;-143.48;78.19;118439.88;5094236;28;20028;-33
2023/02/08 06:20:17;;;;;;;24.13;12.25;;;;;;;-143.48;78.17;118439.88;5094154;28;20064;-32
2023/02/08 06:22:42;;;;;;;22.10;12.00;;;;;;;-143.48;77.85;118439.88;5093950;28;20061;-33
2023/02/08 06:25:08;;;;;;;22.80;12.43;;;;;;;-143.48;77.58;118439.88;5094346;28;20051;-33
2023/02/08 06:27:33;;;;;;;25.02;12.45;;;;;;;-143.48;77.98;118439.88;5094769;28;20028;-33
2023/02/08 06:29:58;;;;;;;21.85;11.73;;;;;;;-143.48;78.21;118439.88;5094078;28;20019;-34
2023/02/08 06:32:24;;;;;;;27.60;12.73;;;;;;;-143.48;77.43;118439.88;5093960;28;20477;-33
2023/02/08 06:34:50;;;;;;;24.75;13.07;;;;;;;-143.48;78.62;118439.88;5094263;28;20107;-34
2023/02/08 06:37:17;;;;;;;24.20;11.93;;;;;;;-143.48;78.83;118439.88;5094340;28;20514;-34
2023/02/08 06:39:42;;;;;;;24.38;12.93;;;;;;;-143.48;78.50;118439.88;5093914;28;20386;-34
2023/02/08 06:42:08;;;;;;;24.92;12.35;;;;;;;-143.48;78.54;118439.88;5094178;28;20024;-34
2023/02/08 06:44:33;;;;;;;28.58;12.60;;;;;;;-143.48;77.27;118439.88;5075628;28;20026;-33
2023/02/08 06:46:59;;;;;;;24.30;12.65;;;;;;;-143.48;76.83;118439.88;5075646;28;20070;-33
2023/02/08 06:49:24;;;;;;;24.17;12.68;;;;;;;-143.48;77.68;118439.88;5093960;28;20032;-34
2023/02/08 06:51:49;;;;;;;22.73;12.48;;;;;;;-143.48;76.78;118439.88;5093811;28;20450;-33
2023/02/08 06:54:15;;;;;;;22.77;12.02;;;;;;;-143.48;77.12;118439.88;5094528;28;20031;-33
2023/02/08 06:56:41;;;;;;;26.00;12.60;;;;;;;-143.48;77.44;118439.88;5076235;28;20016;-34
2023/02/08 06:59:06;;;;;;;23.90;12.27;;;;;;;-143.48;79.09;118439.88;5093568;28;20024;-34
2023/02/08 07:01:31;;;;;;;23.25;11.98;;;;;;;-143.48;78.68;118439.88;5093867;28;20055;-33
2023/02/08 07:03:57;;;;;;;22.95;12.23;;;;;;;-143.48;79.35;118439.88;5075382;28;20429;-33
2023/02/08 07:06:22;;;;;;;23.98;12.65;;;;;;;-143.48;79.50;118439.88;5093812;28;20024;-33
2023/02/08 07:08:47;;;;;;;24.13;12.77;;;;;;;-143.48;79.43;118439.88;5093624;28;20028;-33
2023/02/08 07:11:16;;;;;;;29.15;12.15;;;;;;;-143.48;79.08;118439.88;5093399;28;20024;-33
2023/02/08 07:13:41;;;;;;;27.67;13.10;;;;;;;-143.48;78.90;118439.88;5094402;28;20468;-34
2023/02/08 07:16:08;;;;;;;29.38;12.65;;;;;;;-143.48;78.95;118439.88;5093574;28;20024;-33
2023/02/08 07:18:35;;;;;;;23.05;12.32;;;;;;;-143.48;79.02;118439.88;5093117;28;20024;-33
2023/02/08 07:21:01;;;;;;;24.38;12.40;;;;;;;-143.48;78.80;118439.88;5075260;28;20534;-33
2023/02/08 07:23:26;;;;;;;24.63;13.05;;;;;;;-143.48;78.66;118439.88;5093190;28;20107;-33
2023/02/08 07:26:04;;;;;;;28.08;12.48;;;;;;;-143.48;78.33;118439.88;5093739;28;20024;-34
2023/02/08 07:28:30;;;;;;;30.67;13.38;;;;;;;-143.48;77.81;118439.88;5093885;28;20031;-33
2023/02/08 07:30:55;;;;;;;27.08;12.88;;;;;;;-143.48;78.07;118439.88;5093379;28;20421;-32
2023/02/08 07:33:21;;;;;;;31.92;14.38;;;;;;;-143.48;78.43;118439.88;5093337;28;20020;-34
2023/02/08 07:35:47;;;;;;;29.02;14.63;;;;;;;-143.48;78.05;118439.88;5075187;28;20028;-34
2023/02/08 07:38:15;;;;;;;39.08;16.38;;;;;;;-143.48;78.41;118439.88;5093222;28;20032;-34
2023/02/08 07:40:40;;;;;;;30.85;14.57;;;;;;;-143.48;77.73;118439.88;5093452;28;20069;-34
2023/02/08 07:43:06;;;;;;;33.30;15.23;;;;;;;-143.48;73.57;118439.88;5093096;28;20032;-34
2023/02/08 07:45:32;;;;;;;31.65;13.20;;;;;;;-143.48;70.46;118439.88;5093364;28;20020;-34
2023/02/08 07:47:58;;;;;;;23.30;12.32;;;;;;;-143.48;71.71;118439.88;5092463;28;20035;-34
2023/02/08 07:50:23;;;;;;;25.85;13.10;;;;;;;-143.48;73.16;118439.88;5092396;28;20016;-38
2023/02/08 07:52:48;;;;;;;21.80;12.70;;;;;;;-143.48;73.43;118439.88;5074983;28;20017;-34
2023/02/08 07:55:15;;;;;;;22.20;11.73;;;;;;;-143.48;74.05;118439.88;5093421;28;20028;-34
2023/02/08 07:57:46;;;;;;;23.45;12.90;;;;;;;-143.48;74.41;118439.88;5075547;28;20028;-34
2023/02/08 08:00:12;;;;;;;24.20;12.43;;;;;;;-143.48;74.68;118439.88;5092626;28;20024;-33
2023/02/08 08:02:38;;;;;;;23.90;12.77;;;;;;;-143.48;74.12;118439.88;5106467;22;20036;-75
2023/02/08 08:05:03;;;;;;;22.02;12.10;;;;;;;-143.48;73.80;118439.88;5093128;28;20375;-75
2023/02/08 08:07:28;;;;;;;21.65;11.98;;;;;;;-143.48;72.81;118439.88;5075441;28;20031;-75
2023/02/08 08:09:54;;;;;;;24.70;12.25;;;;;;;-143.48;73.47;118439.88;5096027;28;20344;-73
2023/02/08 08:12:20;;;;;;;21.95;12.50;;;;;;;-143.48;69.51;118439.88;5096164;28;20044;-74
2023/02/08 08:14:45;;;;;;;19.90;12.25;;;;;;;-143.48;59.79;118439.88;5078468;28;20024;-75
2023/02/08 08:17:11;;;;;;;19.83;12.90;;;;;;;-143.48;55.65;118439.88;5097289;28;20035;-75
2023/02/08 08:19:36;;;;;;;18.10;12.23;;;;;;;-143.48;53.28;118439.88;5096636;28;20712;-76
2023/02/08 08:22:01;;;;;;;20.15;12.45;;;;;;;-143.48;50.80;118439.88;5096132;28;20097;-74
2023/02/08 08:24:27;;;;;;;17.67;12.02;;;;;;;-143.48;50.20;118439.88;5097654;28;20028;-76
2023/02/08 08:26:52;;;;;;;21.13;11.98;;;;;;;-143.48;54.98;118439.88;5099504;28;20081;-76
2023/02/08 08:29:17;;;;;;;19.85;11.98;;;;;;;-143.48;57.12;118439.88;5081879;28;20066;-76
2023/02/08 08:31:43;;;;;;;19.05;11.48;;;;;;;-143.48;54.22;118439.88;5099525;28;20069;-76
2023/02/08 08:34:09;;;;;;;17.25;11.70;;;;;;;-143.48;53.89;118439.88;5110040;28;20024;-77
2023/02/08 08:36:34;;;;;;;21.27;11.98;;;;;;;-143.48;57.99;118439.88;5114427;28;20028;-76
2023/02/08 08:38:59;;;;;;;17.63;11.85;;;;;;;-143.48;60.87;118439.88;5098393;28;20028;-76
2023/02/08 08:41:26;;;;;;;18.88;12.10;;;;;;;-143.48;60.90;118439.88;5117463;28;20020;-75
2023/02/08 08:43:51;;;;;;;20.05;11.88;;;;;;;-143.48;60.97;118439.88;5117471;28;20052;-73
2023/02/08 08:46:17;;;;;;;20.13;11.35;;;;;;;-143.48;61.49;118439.88;5118410;28;20381;-72
2023/02/08 08:48:42;;;;;;;19.77;11.57;;;;;;;-143.48;61.61;118439.88;5120370;28;20016;-72
2023/02/08 08:51:08;;;;;;;19.88;10.88;;;;;;;-143.48;62.81;118439.88;5121149;28;20020;-71
2023/02/08 08:53:33;;;;;;;20.98;11.50;;;;;;;-143.48;62.52;118439.88;5103924;28;20018;-71
2023/02/08 08:55:59;;;;;;;19.27;10.48;;;;;;;-143.48;62.28;118439.88;5102344;28;20012;-73
2023/02/08 08:58:25;;;;;;;17.67;10.48;;;;;;;-143.48;62.30;118439.88;5119619;28;20028;-72
2023/02/08 09:00:50;;;;;;;19.70;10.88;;;;;;;-143.48;62.60;118439.88;5119571;28;20052;-72
2023/02/08 09:03:15;;;;;;;22.30;10.45;;;;;;;-143.48;63.30;118439.88;5102453;28;20040;-72
2023/02/08 09:05:41;;;;;;;20.35;10.52;;;;;;;-143.48;62.19;118439.88;5118897;28;20036;-70
2023/02/08 09:08:06;;;;;;;18.80;10.77;;;;;;;-143.48;62.30;118439.88;5119103;28;20105;-75
2023/02/08 09:10:32;;;;;;;19.80;10.18;;;;;;;-143.48;61.34;118439.88;5117231;28;20036;-72
2023/02/08 09:12:58;;;;;;;19.90;11.02;;;;;;;-143.48;61.82;118439.88;5099067;28;20032;-75
2023/02/08 09:15:23;;;;;;;21.20;10.70;;;;;;;-143.48;62.02;118439.88;5106670;28;20498;-74
2023/02/08 09:17:48;;;;;;;19.17;10.30;;;;;;;-143.48;61.39;118439.88;5087565;28;20066;-75
2023/02/08 09:20:14;;;;;;;19.65;10.48;;;;;;;-143.48;60.88;118439.88;5084970;28;20028;-76
2023/02/08 09:22:39;;;;;;;19.52;10.10;;;;;;;-143.48;61.09;118439.88;5103369;28;20462;-76
2023/02/08 09:25:06;;;;;;;18.83;10.13;;;;;;;-143.48;58.78;118439.88;5081842;28;20020;-78
2023/02/08 09:27:31;;;;;;;19.15;10.50;;;;;;;-143.48;51.74;118439.88;5099800;28;20088;-77
2023/02/08 09:29:57;;;;;;;21.48;11.38;;;;;;;-143.48;44.42;118439.88;5082262;28;20061;-77
2023/02/08 09:32:22;;;;;;;18.08;10.75;;;;;;;-143.48;40.79;118439.88;5079666;28;20024;-77
2023/02/08 09:34:47;;;;;;;16.85;10.55;;;;;;;-143.48;40.06;118439.88;5097979;28;20043;-78
2023/02/08 09:37:16;;;;;;;14.45;10.38;;;;;;;-143.48;38.02;118439.88;5079569;28;20022;-77
2023/02/08 09:39:41;;;;;;;17.25;9.35;;;;;;;-143.48;38.71;118439.88;5097932;28;20020;-78
2023/02/08 09:42:10;;;;;;;14.88;9.25;;;;;;;-143.48;38.88;118439.88;5077845;28;20110;-77
2023/02/08 09:45:02;;;;;;;12.10;9.52;;;;;;;-143.48;36.43;118439.88;5096679;28;20023;-76
2023/02/08 09:47:41;;;;;;;12.95;9.13;;;;;;;-143.48;34.80;118439.88;5093843;28;20051;-77
2023/02/08 09:50:33;;;;;;;12.45;8.88;;;;;;;-143.48;35.08;118439.88;5094245;28;20383;-75
2023/02/08 09:53:10;;;;;;;14.05;9.18;;;;;;;-143.48;35.58;118439.88;5075303;28;20452;-78
2023/02/08 09:55:40;;;;;;;13.07;9.00;;;;;;;-143.48;34.59;118439.88;5092776;28;20023;-77
2023/02/08 09:58:23;;;;;;;15.82;8.65;;;;;;;-143.48;32.84;118439.88;5074658;28;20024;-78
2023/02/08 10:00:51;;;;;;;10.85;8.32;;;;;;;-143.48;32.60;118439.88;5098359;28;20502;-76
2023/02/08 10:03:34;;;;;;;13.13;8.43;;;;;;;-143.48;31.44;118439.88;5096536;28;20085;-77
2023/02/08 10:06:00;;;;;;;15.75;8.70;;;;;;;-143.48;33.07;118439.88;5097562;28;20024;-78
2023/02/08 10:08:27;;;;;;;10.55;8.07;;;;;;;-143.48;32.30;118439.88;5096306;28;20016;-78
2023/02/08 10:11:08;;;;;;;12.98;8.43;;;;;;;-143.48;32.02;118439.88;5094985;28;20035;-80
2023/02/08 10:13:51;;;;;;;11.75;8.25;;;;;;;-143.48;32.02;118439.88;5094928;28;20015;-77
2023/02/08 10:16:41;;;;;;;13.73;8.65;;;;;;;-143.48;31.66;118439.88;5083876;28;20038;-78
2023/02/08 10:19:20;;;;;;;12.05;8.25;;;;;;;-143.48;31.52;118439.88;5095292;28;20024;-77
2023/02/08 10:22:04;;;;;;;10.10;7.78;;;;;;;-143.48;31.04;118439.88;5095133;28;20463;-78
2023/02/08 10:24:48;;;;;;;12.27;9.02;;;;;;;-143.48;30.76;118439.88;5094387;28;20085;-78
2023/02/08 10:27:16;;;;;;;11.38;7.80;;;;;;;-143.48;29.97;118439.88;5094486;28;20457;-77
2023/02/08 10:29:53;;;;;;;12.02;8.45;;;;;;;-143.48;29.48;118439.88;5094693;28;20107;-78
2023/02/08 10:32:55;;;;;;;10.35;8.25;;;;;;;-143.48;29.42;118439.88;5094340;28;20095;-78
2023/02/08 10:35:34;;;;;;;11.97;7.40;;;;;;;-143.48;28.30;118439.88;5070775;28;20056;-77
2023/02/08 10:37:59;;;;;;;10.02;7.60;;;;;;;-143.48;28.83;118439.88;5094241;28;20408;-78
2023/02/08 10:40:34;;;;;;;11.00;7.72;;;;;;;-143.48;28.95;118439.88;5095507;28;20102;-78
2023/02/08 10:43:34;;;;;;;14.15;8.00;;;;;;;-143.48;29.03;118439.88;5094444;28;20115;-78
2023/02/08 10:46:04;;;;;;;14.27;8.20;;;;;;;-143.48;28.45;118439.88;5095775;28;20031;-78
2023/02/08 10:48:47;;;;;;;11.25;7.85;;;;;;;-143.48;29.42;118439.88;5076205;28;20118;-78
2023/02/08 10:51:15;;;;;;;9.15;7.60;;;;;;;-143.48;27.54;118439.88;5094538;28;20044;-78
2023/02/08 10:53:41;;;;;;;11.55;8.30;;;;;;;-143.48;28.23;118439.88;5094385;28;20024;-77
2023/02/08 10:56:21;;;;;;;10.05;7.90;;;;;;;-143.48;28.45;118439.88;5095940;28;20028;-77
2023/02/08 10:58:46;;;;;;;11.60;8.18;;;;;;;-143.48;28.51;118439.88;5094983;28;20514;-78
2023/02/08 11:01:12;;;;;;;11.55;8.00;;;;;;;-143.48;27.67;118439.88;5077968;28;20055;-79
2023/02/08 11:03:38;;;;;;;13.68;7.70;;;;;;;-143.48;27.65;118439.88;5102111;28;20079;-77
2023/02/08 11:06:04;;;;;;;12.02;8.02;;;;;;;-143.48;28.70;118439.88;5094304;28;20027;-76
2023/02/08 11:08:29;;;;;;;9.63;7.70;;;;;;;-143.48;28.20;118439.88;5075778;28;20036;-78
2023/02/08 11:10:59;;;;;;;14.73;8.18;;;;;;;-143.48;27.50;118439.88;5077387;28;20028;-77
2023/02/08 11:13:35;;;;;;;13.00;7.57;;;;;;;-143.48;27.25;118439.88;5098197;28;20031;-77
2023/02/08 11:16:04;;;;;;;12.45;8.20;;;;;;;-143.48;27.12;118439.88;5076974;28;20371;-78
2023/02/08 11:18:39;;;;;;;11.80;7.57;;;;;;;-143.48;27.00;118439.88;5095016;28;20109;-76
2023/02/08 11:21:09;;;;;;;11.85;7.75;;;;;;;-143.48;27.22;118439.88;5078747;28;20390;-77
2023/02/08 11:23:41;;;;;;;14.52;7.68;;;;;;;-143.48;26.06;118439.88;5079486;28;20114;-78
2023/02/08 11:26:23;;;;;;;10.63;7.30;;;;;;;-143.48;25.79;118439.88;5079236;28;20024;-79
2023/02/08 11:29:16;;;;;;;11.70;7.35;;;;;;;-143.48;25.58;118439.88;5096639;28;20076;-78
2023/02/08 11:31:53;;;;;;;9.40;6.75;;;;;;;-143.48;25.76;118439.88;5089379;28;20070;-78
2023/02/08 11:34:37;;;;;;;14.52;7.30;;;;;;;-143.48;26.33;118439.88;5093976;28;20020;-78
2023/02/08 11:37:27;;;;;;;11.23;7.00;;;;;;;-143.48;26.15;118439.88;5093787;28;20031;-78
2023/02/08 11:39:58;;;;;;;8.45;6.60;;;;;;;-143.48;27.30;118439.88;5075639;28;20020;-78
2023/02/08 11:42:27;;;;;;;9.85;6.90;;;;;;;-143.48;27.19;118439.88;5097954;28;20107;-78
2023/02/08 11:44:54;;;;;;;8.05;6.30;;;;;;;-143.48;26.20;118439.88;5078611;28;20356;-79
2023/02/08 11:47:32;;;;;;;7.72;6.15;;;;;;;-143.48;26.20;118439.88;5097594;28;20035;-77
2023/02/08 11:50:01;;;;;;;10.40;6.80;;;;;;;-143.48;25.73;118439.88;5079212;28;20024;-77
2023/02/08 11:52:31;;;;;;;10.02;6.55;;;;;;;-143.48;26.65;118439.88;5097623;28;20473;-77
2023/02/08 11:55:23;;;;;;;9.50;6.40;;;;;;;-143.48;25.68;118439.88;5100106;28;20035;-77
2023/02/08 11:58:23;;;;;;;8.90;6.20;;;;;;;-143.48;25.34;118439.88;5103314;28;20024;-78
2023/02/08 12:01:02;;;;;;;9.35;6.43;;;;;;;-143.48;25.73;118439.88;5100697;28;20040;-77
2023/02/08 12:03:32;;;;;;;8.88;6.38;;;;;;;-143.48;25.40;118439.88;5081694;28;20036;-78
2023/02/08 12:06:19;;;;;;;9.20;5.85;;;;;;;-143.48;25.64;118439.88;5100548;28;20107;-77
2023/02/08 12:09:06;;;;;;;7.97;6.25;;;;;;;-143.48;25.36;118439.88;5082294;28;20379;-68
2023/02/08 12:11:42;;;;;;;7.90;6.03;;;;;;;-143.48;26.14;118439.88;5097856;28;20047;-69